Main page
METAR-TAF:

METAR-TAF

Airports :

Friedrichshafen Airport

Friedrichshafen, Germany

latitude: 47-40N, longitude: 009-31E, elevation: 416 m

Current weather observation

The report was made 10 minutes ago, at 05:20 UTC
Wind 3 kt from the North/Northwest
Temperature 16°C
Humidity 88%
Pressure 1023 hPa
Visibility 10 km or more
Overcast at a height of 3900 ft

METAR: EDNY 180520Z 34003KT 9999 OVC039 16/14 Q1023

Time: 07:30 (05:30 UTC)

Forecast

The report was made 6 hours and 30 minutes ago, at 23:00 UTC
Forecast valid from 18 at 00 UTC to 18 at 24 UTC
Wind 5 kt from the West/Southwest
Visibility 10 km or more
Broken clouds at a height of 4500 ft
Becoming
from 18 at 17 UTC to 18 at 19 UTC
Wind 3 kt from the North/Northeast

TAF: EDNY 172300Z 1800/1824 24005KT 9999 BKN045 BECMG 1817/1819 03003KT

Weather observations and forecasts of more than 4000 airports (METAR and TAF reports).

The available stations are represented by yellow and red dots on the map.

Hover mouse over dot to see the name of the station.

Then click to see weather observations and forecasts.

To change the map : click on the green buttons with a black cross to zoom in, on the green button with a dash to zoom out, or on the green arrows for adjacent maps.


METAR-TAF: